Tolliver Town, Kentucky
Current Conditions -  °F | °C
As of 6:15 PM on Tuesday 25 Nov 2014 (Local Time) from KLNP Reporting Station
Clear Clear  
Wind Chill: 45°   Ceiling: Unl
Heat Index: 45°   Visibility: 10mi
Dew Point: 21°   Wind: 3mph
Humidity: 39%   Direction: 360°N
Pressure: 30.07"   Gusts: NA
Location:  37.1865°N, 82.6973°W
Report Text: KLNP 252315Z AUTO 36003KT 10SM CLR 07/M06 A3007 RMK AO2
Loading
Personal Weather Stations






























Interactive Weather Map New forecast layout! Learn more

10-Day Weather Forecast

Advertisements
Track Severe Weather on mobile